sensor_id;sensor_type;location;lat;lon;timestamp;P1;durP1;ratioP1;P2;durP2;ratioP2
19219;SDS011;9744;49.364;7.484;2023-04-03T00:00:12;7.22;;;3.90;;
19219;SDS011;9744;49.364;7.484;2023-04-03T00:02:40;6.10;;;4.15;;
19219;SDS011;9744;49.364;7.484;2023-04-03T00:05:07;6.95;;;4.20;;
19219;SDS011;9744;49.364;7.484;2023-04-03T00:07:36;6.45;;;4.75;;
19219;SDS011;9744;49.364;7.484;2023-04-03T00:10:03;8.15;;;4.38;;
19219;SDS011;9744;49.364;7.484;2023-04-03T00:12:31;6.97;;;4.18;;
19219;SDS011;9744;49.364;7.484;2023-04-03T00:14:58;5.68;;;4.18;;
19219;SDS011;9744;49.364;7.484;2023-04-03T00:17:25;7.10;;;4.13;;
19219;SDS011;9744;49.364;7.484;2023-04-03T00:19:52;5.78;;;4.50;;
19219;SDS011;9744;49.364;7.484;2023-04-03T00:22:19;5.43;;;4.30;;
19219;SDS011;9744;49.364;7.484;2023-04-03T00:24:48;5.22;;;4.70;;
19219;SDS011;9744;49.364;7.484;2023-04-03T00:27:15;7.28;;;4.25;;
19219;SDS011;9744;49.364;7.484;2023-04-03T00:29:42;8.05;;;4.50;;
19219;SDS011;9744;49.364;7.484;2023-04-03T00:32:09;6.72;;;4.25;;
19219;SDS011;9744;49.364;7.484;2023-04-03T00:34:36;7.53;;;4.53;;
19219;SDS011;9744;49.364;7.484;2023-04-03T00:37:04;4.97;;;3.50;;
19219;SDS011;9744;49.364;7.484;2023-04-03T00:39:31;7.40;;;4.28;;
19219;SDS011;9744;49.364;7.484;2023-04-03T00:41:59;7.72;;;3.88;;
19219;SDS011;9744;49.364;7.484;2023-04-03T00:47:27;5.75;;;3.83;;
19219;SDS011;9744;49.364;7.484;2023-04-03T00:49:55;7.47;;;4.07;;
19219;SDS011;9744;49.364;7.484;2023-04-03T00:52:25;7.80;;;3.90;;
19219;SDS011;9744;49.364;7.484;2023-04-03T00:54:57;6.00;;;4.28;;
19219;SDS011;9744;49.364;7.484;2023-04-03T00:57:28;5.80;;;3.50;;
19219;SDS011;9744;49.364;7.484;2023-04-03T00:59:58;6.80;;;3.60;;
19219;SDS011;9744;49.364;7.484;2023-04-03T01:02:32;6.22;;;4.03;;
19219;SDS011;9744;49.364;7.484;2023-04-03T01:07:53;6.93;;;4.15;;
19219;SDS011;9744;49.364;7.484;2023-04-03T01:10:21;4.95;;;3.70;;
19219;SDS011;9744;49.364;7.484;2023-04-03T01:12:52;6.03;;;3.97;;
19219;SDS011;9744;49.364;7.484;2023-04-03T01:15:19;5.78;;;3.70;;
19219;SDS011;9744;49.364;7.484;2023-04-03T01:17:48;4.15;;;3.45;;
19219;SDS011;9744;49.364;7.484;2023-04-03T01:23:44;5.03;;;3.53;;
19219;SDS011;9744;49.364;7.484;2023-04-03T01:26:20;6.80;;;3.67;;
19219;SDS011;9744;49.364;7.484;2023-04-03T01:28:49;4.57;;;3.78;;
19219;SDS011;9744;49.364;7.484;2023-04-03T01:31:19;7.65;;;3.65;;
19219;SDS011;9744;49.364;7.484;2023-04-03T01:33:51;5.30;;;3.58;;
19219;SDS011;9744;49.364;7.484;2023-04-03T01:36:20;6.15;;;3.60;;
19219;SDS011;9744;49.364;7.484;2023-04-03T01:38:49;5.78;;;3.45;;
19219;SDS011;9744;49.364;7.484;2023-04-03T01:41:17;4.35;;;3.50;;
19219;SDS011;9744;49.364;7.484;2023-04-03T01:43:46;6.28;;;3.40;;
19219;SDS011;9744;49.364;7.484;2023-04-03T01:46:13;5.13;;;3.30;;
19219;SDS011;9744;49.364;7.484;2023-04-03T01:48:41;7.78;;;4.18;;
19219;SDS011;9744;49.364;7.484;2023-04-03T01:51:18;6.35;;;3.95;;
19219;SDS011;9744;49.364;7.484;2023-04-03T01:53:45;4.10;;;3.53;;
19219;SDS011;9744;49.364;7.484;2023-04-03T01:56:12;4.22;;;3.65;;
19219;SDS011;9744;49.364;7.484;2023-04-03T01:58:39;4.20;;;3.35;;
19219;SDS011;9744;49.364;7.484;2023-04-03T02:01:07;4.55;;;3.72;;
19219;SDS011;9744;49.364;7.484;2023-04-03T02:03:34;5.53;;;3.70;;
19219;SDS011;9744;49.364;7.484;2023-04-03T02:06:01;6.32;;;3.85;;
19219;SDS011;9744;49.364;7.484;2023-04-03T02:08:29;6.88;;;3.90;;
19219;SDS011;9744;49.364;7.484;2023-04-03T02:10:57;7.80;;;3.70;;
19219;SDS011;9744;49.364;7.484;2023-04-03T02:13:24;5.70;;;3.63;;
19219;SDS011;9744;49.364;7.484;2023-04-03T02:15:51;7.22;;;3.88;;
19219;SDS011;9744;49.364;7.484;2023-04-03T02:18:18;4.18;;;3.20;;
19219;SDS011;9744;49.364;7.484;2023-04-03T02:20:46;6.97;;;3.55;;
19219;SDS011;9744;49.364;7.484;2023-04-03T02:23:13;7.57;;;3.42;;
19219;SDS011;9744;49.364;7.484;2023-04-03T02:25:42;4.35;;;3.20;;
19219;SDS011;9744;49.364;7.484;2023-04-03T02:28:09;7.97;;;3.80;;
19219;SDS011;9744;49.364;7.484;2023-04-03T02:30:36;6.30;;;3.65;;
19219;SDS011;9744;49.364;7.484;2023-04-03T02:33:03;6.18;;;4.32;;
19219;SDS011;9744;49.364;7.484;2023-04-03T02:35:31;5.30;;;3.53;;
19219;SDS011;9744;49.364;7.484;2023-04-03T02:37:58;6.95;;;3.80;;
19219;SDS011;9744;49.364;7.484;2023-04-03T02:40:25;4.32;;;3.70;;
19219;SDS011;9744;49.364;7.484;2023-04-03T02:42:54;7.75;;;3.85;;
19219;SDS011;9744;49.364;7.484;2023-04-03T02:45:23;8.10;;;3.42;;
19219;SDS011;9744;49.364;7.484;2023-04-03T02:47:51;6.20;;;3.78;;
19219;SDS011;9744;49.364;7.484;2023-04-03T02:50:18;4.00;;;3.60;;
19219;SDS011;9744;49.364;7.484;2023-04-03T02:52:46;5.55;;;3.60;;
19219;SDS011;9744;49.364;7.484;2023-04-03T02:55:13;4.25;;;3.83;;
19219;SDS011;9744;49.364;7.484;2023-04-03T02:57:43;7.88;;;4.22;;
19219;SDS011;9744;49.364;7.484;2023-04-03T03:00:12;8.20;;;3.88;;
19219;SDS011;9744;49.364;7.484;2023-04-03T03:02:40;7.57;;;3.85;;
19219;SDS011;9744;49.364;7.484;2023-04-03T03:05:08;6.05;;;3.50;;
19219;SDS011;9744;49.364;7.484;2023-04-03T03:07:35;6.63;;;3.90;;
19219;SDS011;9744;49.364;7.484;2023-04-03T03:10:02;7.22;;;3.95;;
19219;SDS011;9744;49.364;7.484;2023-04-03T03:12:30;5.43;;;3.78;;
19219;SDS011;9744;49.364;7.484;2023-04-03T03:14:57;4.63;;;3.78;;
19219;SDS011;9744;49.364;7.484;2023-04-03T03:17:25;4.57;;;3.80;;
19219;SDS011;9744;49.364;7.484;2023-04-03T03:19:52;7.63;;;4.15;;
19219;SDS011;9744;49.364;7.484;2023-04-03T03:22:20;5.97;;;4.30;;
19219;SDS011;9744;49.364;7.484;2023-04-03T03:28:07;5.80;;;3.72;;
19219;SDS011;9744;49.364;7.484;2023-04-03T03:30:34;6.90;;;3.72;;
19219;SDS011;9744;49.364;7.484;2023-04-03T03:33:03;7.68;;;3.53;;
19219;SDS011;9744;49.364;7.484;2023-04-03T03:35:30;4.10;;;3.58;;
19219;SDS011;9744;49.364;7.484;2023-04-03T03:37:58;6.28;;;3.60;;
19219;SDS011;9744;49.364;7.484;2023-04-03T03:40:25;5.55;;;3.75;;
19219;SDS011;9744;49.364;7.484;2023-04-03T03:42:52;9.35;;;4.28;;
19219;SDS011;9744;49.364;7.484;2023-04-03T03:45:20;6.93;;;4.10;;
19219;SDS011;9744;49.364;7.484;2023-04-03T03:47:47;6.60;;;4.18;;
19219;SDS011;9744;49.364;7.484;2023-04-03T03:50:16;6.45;;;3.90;;
19219;SDS011;9744;49.364;7.484;2023-04-03T03:52:44;5.20;;;4.15;;
19219;SDS011;9744;49.364;7.484;2023-04-03T03:55:11;7.40;;;3.97;;
19219;SDS011;9744;49.364;7.484;2023-04-03T03:57:39;7.22;;;3.42;;
19219;SDS011;9744;49.364;7.484;2023-04-03T04:00:08;5.10;;;3.65;;
19219;SDS011;9744;49.364;7.484;2023-04-03T04:02:43;5.95;;;3.85;;
19219;SDS011;9744;49.364;7.484;2023-04-03T04:05:16;6.35;;;3.70;;
19219;SDS011;9744;49.364;7.484;2023-04-03T04:07:44;5.22;;;3.28;;
19219;SDS011;9744;49.364;7.484;2023-04-03T04:10:11;8.45;;;3.67;;
19219;SDS011;9744;49.364;7.484;2023-04-03T04:12:40;5.75;;;4.03;;
19219;SDS011;9744;49.364;7.484;2023-04-03T04:15:07;7.38;;;3.58;;
19219;SDS011;9744;49.364;7.484;2023-04-03T04:17:35;6.40;;;3.85;;
19219;SDS011;9744;49.364;7.484;2023-04-03T04:20:05;6.32;;;3.50;;
19219;SDS011;9744;49.364;7.484;2023-04-03T04:22:35;4.53;;;3.58;;
19219;SDS011;9744;49.364;7.484;2023-04-03T04:25:03;6.60;;;3.70;;
19219;SDS011;9744;49.364;7.484;2023-04-03T04:27:31;5.80;;;3.95;;
19219;SDS011;9744;49.364;7.484;2023-04-03T04:29:58;4.30;;;3.22;;
19219;SDS011;9744;49.364;7.484;2023-04-03T04:32:26;4.80;;;3.25;;
19219;SDS011;9744;49.364;7.484;2023-04-03T04:34:54;4.93;;;2.92;;
19219;SDS011;9744;49.364;7.484;2023-04-03T04:37:21;7.97;;;3.30;;
19219;SDS011;9744;49.364;7.484;2023-04-03T04:39:52;6.30;;;3.20;;
19219;SDS011;9744;49.364;7.484;2023-04-03T04:42:19;7.43;;;4.25;;
19219;SDS011;9744;49.364;7.484;2023-04-03T04:44:48;5.75;;;3.65;;
19219;SDS011;9744;49.364;7.484;2023-04-03T04:47:15;4.40;;;3.00;;
19219;SDS011;9744;49.364;7.484;2023-04-03T04:49:43;4.70;;;2.95;;
19219;SDS011;9744;49.364;7.484;2023-04-03T04:52:13;4.72;;;3.45;;
19219;SDS011;9744;49.364;7.484;2023-04-03T04:54:40;5.15;;;3.33;;
19219;SDS011;9744;49.364;7.484;2023-04-03T04:57:10;5.18;;;3.35;;
19219;SDS011;9744;49.364;7.484;2023-04-03T04:59:37;5.78;;;3.10;;
19219;SDS011;9744;49.364;7.484;2023-04-03T05:02:06;5.13;;;3.50;;
19219;SDS011;9744;49.364;7.484;2023-04-03T05:04:34;5.85;;;3.28;;
19219;SDS011;9744;49.364;7.484;2023-04-03T05:07:07;5.68;;;2.90;;
19219;SDS011;9744;49.364;7.484;2023-04-03T05:12:36;4.35;;;2.83;;
19219;SDS011;9744;49.364;7.484;2023-04-03T05:15:04;5.38;;;2.88;;
19219;SDS011;9744;49.364;7.484;2023-04-03T05:17:32;3.53;;;2.88;;
19219;SDS011;9744;49.364;7.484;2023-04-03T05:20:01;5.13;;;2.97;;
19219;SDS011;9744;49.364;7.484;2023-04-03T05:22:29;4.32;;;2.70;;
19219;SDS011;9744;49.364;7.484;2023-04-03T05:25:02;8.15;;;3.10;;
19219;SDS011;9744;49.364;7.484;2023-04-03T05:27:30;7.63;;;3.13;;
19219;SDS011;9744;49.364;7.484;2023-04-03T05:29:59;5.78;;;3.78;;
19219;SDS011;9744;49.364;7.484;2023-04-03T05:32:27;5.07;;;3.33;;
19219;SDS011;9744;49.364;7.484;2023-04-03T05:35:13;17.42;;;7.85;;
19219;SDS011;9744;49.364;7.484;2023-04-03T05:37:41;14.07;;;5.75;;
19219;SDS011;9744;49.364;7.484;2023-04-03T05:40:09;11.55;;;6.30;;
19219;SDS011;9744;49.364;7.484;2023-04-03T05:42:41;10.82;;;6.30;;
19219;SDS011;9744;49.364;7.484;2023-04-03T05:45:10;7.35;;;4.55;;
19219;SDS011;9744;49.364;7.484;2023-04-03T05:47:37;11.85;;;5.97;;
19219;SDS011;9744;49.364;7.484;2023-04-03T05:50:06;7.88;;;4.60;;
19219;SDS011;9744;49.364;7.484;2023-04-03T05:52:35;6.47;;;4.32;;
19219;SDS011;9744;49.364;7.484;2023-04-03T05:55:04;8.32;;;4.28;;
19219;SDS011;9744;49.364;7.484;2023-04-03T05:57:34;4.53;;;3.80;;
19219;SDS011;9744;49.364;7.484;2023-04-03T06:00:02;5.63;;;3.75;;
19219;SDS011;9744;49.364;7.484;2023-04-03T06:02:41;6.28;;;3.70;;
19219;SDS011;9744;49.364;7.484;2023-04-03T06:05:15;5.85;;;3.60;;
19219;SDS011;9744;49.364;7.484;2023-04-03T06:07:43;7.35;;;3.53;;
19219;SDS011;9744;49.364;7.484;2023-04-03T06:10:14;7.38;;;4.13;;
19219;SDS011;9744;49.364;7.484;2023-04-03T06:12:41;7.45;;;3.83;;
19219;SDS011;9744;49.364;7.484;2023-04-03T06:15:10;8.18;;;4.15;;
19219;SDS011;9744;49.364;7.484;2023-04-03T06:17:39;8.98;;;3.88;;
19219;SDS011;9744;49.364;7.484;2023-04-03T06:20:08;5.30;;;3.80;;
19219;SDS011;9744;49.364;7.484;2023-04-03T06:22:37;9.95;;;3.47;;
19219;SDS011;9744;49.364;7.484;2023-04-03T06:25:04;6.47;;;3.55;;
19219;SDS011;9744;49.364;7.484;2023-04-03T06:27:32;4.45;;;3.53;;
19219;SDS011;9744;49.364;7.484;2023-04-03T06:29:59;5.80;;;3.20;;
19219;SDS011;9744;49.364;7.484;2023-04-03T06:32:26;5.45;;;3.47;;
19219;SDS011;9744;49.364;7.484;2023-04-03T06:34:55;5.43;;;3.22;;
19219;SDS011;9744;49.364;7.484;2023-04-03T06:37:23;4.68;;;2.65;;
19219;SDS011;9744;49.364;7.484;2023-04-03T06:39:53;6.55;;;3.25;;
19219;SDS011;9744;49.364;7.484;2023-04-03T06:42:20;14.38;;;4.00;;
19219;SDS011;9744;49.364;7.484;2023-04-03T06:44:57;5.88;;;3.35;;
19219;SDS011;9744;49.364;7.484;2023-04-03T06:47:25;4.63;;;3.08;;
19219;SDS011;9744;49.364;7.484;2023-04-03T06:49:52;6.30;;;3.40;;
19219;SDS011;9744;49.364;7.484;2023-04-03T06:52:21;6.00;;;2.70;;
19219;SDS011;9744;49.364;7.484;2023-04-03T06:54:48;5.65;;;3.22;;
19219;SDS011;9744;49.364;7.484;2023-04-03T06:57:17;4.45;;;3.00;;
19219;SDS011;9744;49.364;7.484;2023-04-03T06:59:44;5.57;;;3.25;;
19219;SDS011;9744;49.364;7.484;2023-04-03T07:02:11;6.28;;;3.10;;
19219;SDS011;9744;49.364;7.484;2023-04-03T07:04:39;9.43;;;3.40;;
19219;SDS011;9744;49.364;7.484;2023-04-03T07:07:06;5.53;;;2.97;;
19219;SDS011;9744;49.364;7.484;2023-04-03T07:09:35;5.00;;;3.15;;
19219;SDS011;9744;49.364;7.484;2023-04-03T07:12:02;6.07;;;2.95;;
19219;SDS011;9744;49.364;7.484;2023-04-03T07:14:29;5.35;;;2.60;;
19219;SDS011;9744;49.364;7.484;2023-04-03T07:16:56;7.55;;;2.85;;
19219;SDS011;9744;49.364;7.484;2023-04-03T07:19:23;8.43;;;2.63;;
19219;SDS011;9744;49.364;7.484;2023-04-03T07:21:53;7.07;;;3.13;;
19219;SDS011;9744;49.364;7.484;2023-04-03T07:24:20;11.90;;;3.08;;
19219;SDS011;9744;49.364;7.484;2023-04-03T07:26:50;6.38;;;2.78;;
19219;SDS011;9744;49.364;7.484;2023-04-03T07:33:37;9.32;;;2.92;;
19219;SDS011;9744;49.364;7.484;2023-04-03T07:36:05;9.18;;;2.80;;
19219;SDS011;9744;49.364;7.484;2023-04-03T07:38:33;8.43;;;3.03;;
19219;SDS011;9744;49.364;7.484;2023-04-03T07:41:00;7.07;;;2.90;;
19219;SDS011;9744;49.364;7.484;2023-04-03T07:43:30;3.92;;;2.55;;
19219;SDS011;9744;49.364;7.484;2023-04-03T07:45:57;6.72;;;2.95;;
19219;SDS011;9744;49.364;7.484;2023-04-03T07:48:24;6.47;;;3.10;;
19219;SDS011;9744;49.364;7.484;2023-04-03T07:50:52;8.35;;;3.15;;
19219;SDS011;9744;49.364;7.484;2023-04-03T07:56:13;5.82;;;3.03;;
19219;SDS011;9744;49.364;7.484;2023-04-03T07:58:42;7.57;;;2.80;;
19219;SDS011;9744;49.364;7.484;2023-04-03T08:01:09;4.55;;;2.72;;
19219;SDS011;9744;49.364;7.484;2023-04-03T08:03:37;16.63;;;8.68;;
19219;SDS011;9744;49.364;7.484;2023-04-03T08:06:05;7.00;;;3.60;;
19219;SDS011;9744;49.364;7.484;2023-04-03T08:08:34;10.10;;;3.30;;
19219;SDS011;9744;49.364;7.484;2023-04-03T08:11:03;6.97;;;3.08;;
19219;SDS011;9744;49.364;7.484;2023-04-03T08:13:31;12.88;;;2.92;;
19219;SDS011;9744;49.364;7.484;2023-04-03T08:16:07;6.75;;;2.40;;
19219;SDS011;9744;49.364;7.484;2023-04-03T08:18:36;10.38;;;2.42;;
19219;SDS011;9744;49.364;7.484;2023-04-03T08:21:07;6.90;;;2.30;;
19219;SDS011;9744;49.364;7.484;2023-04-03T08:23:36;5.50;;;2.10;;
19219;SDS011;9744;49.364;7.484;2023-04-03T08:26:10;4.95;;;2.28;;
19219;SDS011;9744;49.364;7.484;2023-04-03T08:28:38;8.23;;;2.67;;
19219;SDS011;9744;49.364;7.484;2023-04-03T08:31:08;8.55;;;2.20;;
19219;SDS011;9744;49.364;7.484;2023-04-03T08:33:37;7.40;;;2.22;;
19219;SDS011;9744;49.364;7.484;2023-04-03T08:36:05;5.75;;;2.38;;
19219;SDS011;9744;49.364;7.484;2023-04-03T08:38:33;4.20;;;2.05;;
19219;SDS011;9744;49.364;7.484;2023-04-03T08:41:04;5.03;;;2.65;;
19219;SDS011;9744;49.364;7.484;2023-04-03T08:43:40;8.15;;;2.40;;
19219;SDS011;9744;49.364;7.484;2023-04-03T08:46:17;8.48;;;2.22;;
19219;SDS011;9744;49.364;7.484;2023-04-03T08:48:51;5.88;;;1.90;;
19219;SDS011;9744;49.364;7.484;2023-04-03T08:51:20;6.85;;;2.20;;
19219;SDS011;9744;49.364;7.484;2023-04-03T08:53:51;4.65;;;2.22;;
19219;SDS011;9744;49.364;7.484;2023-04-03T08:56:23;5.90;;;2.15;;
19219;SDS011;9744;49.364;7.484;2023-04-03T08:58:52;3.67;;;2.00;;
19219;SDS011;9744;49.364;7.484;2023-04-03T09:01:25;6.00;;;2.00;;
19219;SDS011;9744;49.364;7.484;2023-04-03T09:03:56;3.72;;;2.10;;
19219;SDS011;9744;49.364;7.484;2023-04-03T09:06:25;4.90;;;2.10;;
19219;SDS011;9744;49.364;7.484;2023-04-03T09:08:57;5.25;;;2.05;;
19219;SDS011;9744;49.364;7.484;2023-04-03T09:11:35;8.25;;;1.83;;
19219;SDS011;9744;49.364;7.484;2023-04-03T09:14:12;5.43;;;2.22;;
19219;SDS011;9744;49.364;7.484;2023-04-03T09:16:49;9.60;;;2.20;;
19219;SDS011;9744;49.364;7.484;2023-04-03T09:19:21;5.43;;;1.75;;
19219;SDS011;9744;49.364;7.484;2023-04-03T09:22:01;4.30;;;2.00;;
19219;SDS011;9744;49.364;7.484;2023-04-03T09:24:36;4.20;;;1.90;;
19219;SDS011;9744;49.364;7.484;2023-04-03T09:27:04;5.75;;;2.20;;
19219;SDS011;9744;49.364;7.484;2023-04-03T09:29:34;5.97;;;1.90;;
19219;SDS011;9744;49.364;7.484;2023-04-03T09:32:17;7.28;;;2.30;;
19219;SDS011;9744;49.364;7.484;2023-04-03T09:34:47;4.32;;;1.88;;
19219;SDS011;9744;49.364;7.484;2023-04-03T09:37:34;7.65;;;2.13;;
19219;SDS011;9744;49.364;7.484;2023-04-03T09:40:05;3.30;;;1.80;;
19219;SDS011;9744;49.364;7.484;2023-04-03T09:42:55;3.85;;;1.90;;
19219;SDS011;9744;49.364;7.484;2023-04-03T09:45:25;5.38;;;1.80;;
19219;SDS011;9744;49.364;7.484;2023-04-03T09:48:08;7.13;;;2.42;;
19219;SDS011;9744;49.364;7.484;2023-04-03T09:50:52;3.40;;;1.90;;
19219;SDS011;9744;49.364;7.484;2023-04-03T09:53:31;4.53;;;2.20;;
19219;SDS011;9744;49.364;7.484;2023-04-03T09:56:01;5.75;;;2.47;;
19219;SDS011;9744;49.364;7.484;2023-04-03T09:58:30;4.45;;;2.10;;
19219;SDS011;9744;49.364;7.484;2023-04-03T10:01:00;8.90;;;2.13;;
19219;SDS011;9744;49.364;7.484;2023-04-03T10:03:31;6.00;;;2.42;;
19219;SDS011;9744;49.364;7.484;2023-04-03T10:06:01;5.88;;;1.83;;
19219;SDS011;9744;49.364;7.484;2023-04-03T10:08:29;8.05;;;2.00;;
19219;SDS011;9744;49.364;7.484;2023-04-03T10:11:14;4.10;;;2.10;;
19219;SDS011;9744;49.364;7.484;2023-04-03T10:13:52;6.03;;;1.85;;
19219;SDS011;9744;49.364;7.484;2023-04-03T10:16:23;5.28;;;1.90;;
19219;SDS011;9744;49.364;7.484;2023-04-03T10:19:02;5.70;;;1.67;;
19219;SDS011;9744;49.364;7.484;2023-04-03T10:21:40;6.07;;;1.90;;
19219;SDS011;9744;49.364;7.484;2023-04-03T10:24:13;4.50;;;1.88;;
19219;SDS011;9744;49.364;7.484;2023-04-03T10:26:49;4.35;;;1.67;;
19219;SDS011;9744;49.364;7.484;2023-04-03T10:29:25;8.35;;;1.77;;
19219;SDS011;9744;49.364;7.484;2023-04-03T10:32:02;3.67;;;1.38;;
19219;SDS011;9744;49.364;7.484;2023-04-03T10:34:44;9.07;;;2.85;;
19219;SDS011;9744;49.364;7.484;2023-04-03T10:37:14;4.57;;;2.10;;
19219;SDS011;9744;49.364;7.484;2023-04-03T10:39:50;3.88;;;1.63;;
19219;SDS011;9744;49.364;7.484;2023-04-03T10:42:24;6.07;;;1.73;;
19219;SDS011;9744;49.364;7.484;2023-04-03T10:44:58;4.53;;;1.55;;
19219;SDS011;9744;49.364;7.484;2023-04-03T10:47:36;4.75;;;1.60;;
19219;SDS011;9744;49.364;7.484;2023-04-03T10:50:25;7.97;;;1.70;;
19219;SDS011;9744;49.364;7.484;2023-04-03T10:53:00;12.52;;;1.75;;
19219;SDS011;9744;49.364;7.484;2023-04-03T10:55:33;3.58;;;1.58;;
19219;SDS011;9744;49.364;7.484;2023-04-03T10:58:04;7.25;;;1.95;;
19219;SDS011;9744;49.364;7.484;2023-04-03T11:00:35;2.75;;;1.80;;
19219;SDS011;9744;49.364;7.484;2023-04-03T11:03:08;5.55;;;1.50;;
19219;SDS011;9744;49.364;7.484;2023-04-03T11:05:42;4.60;;;1.75;;
19219;SDS011;9744;49.364;7.484;2023-04-03T11:08:13;6.05;;;2.05;;
19219;SDS011;9744;49.364;7.484;2023-04-03T11:10:49;5.97;;;1.38;;
19219;SDS011;9744;49.364;7.484;2023-04-03T11:13:19;5.80;;;1.60;;
19219;SDS011;9744;49.364;7.484;2023-04-03T11:15:49;4.13;;;1.50;;
19219;SDS011;9744;49.364;7.484;2023-04-03T11:18:20;3.55;;;1.20;;
19219;SDS011;9744;49.364;7.484;2023-04-03T11:20:56;9.77;;;2.28;;
19219;SDS011;9744;49.364;7.484;2023-04-03T11:23:30;4.90;;;1.60;;
19219;SDS011;9744;49.364;7.484;2023-04-03T11:26:04;3.67;;;1.30;;
19219;SDS011;9744;49.364;7.484;2023-04-03T11:31:35;4.03;;;1.17;;
19219;SDS011;9744;49.364;7.484;2023-04-03T11:34:15;5.18;;;1.50;;
19219;SDS011;9744;49.364;7.484;2023-04-03T11:36:55;6.28;;;1.42;;
19219;SDS011;9744;49.364;7.484;2023-04-03T11:39:25;2.45;;;1.27;;
19219;SDS011;9744;49.364;7.484;2023-04-03T11:41:56;3.88;;;1.30;;
19219;SDS011;9744;49.364;7.484;2023-04-03T11:44:41;5.10;;;1.48;;
19219;SDS011;9744;49.364;7.484;2023-04-03T11:47:09;5.47;;;1.45;;
19219;SDS011;9744;49.364;7.484;2023-04-03T11:49:57;3.03;;;1.27;;
19219;SDS011;9744;49.364;7.484;2023-04-03T11:58:25;5.07;;;1.35;;
19219;SDS011;9744;49.364;7.484;2023-04-03T12:00:55;4.30;;;1.40;;
19219;SDS011;9744;49.364;7.484;2023-04-03T12:06:48;3.10;;;1.20;;
19219;SDS011;9744;49.364;7.484;2023-04-03T12:09:29;3.28;;;1.35;;
19219;SDS011;9744;49.364;7.484;2023-04-03T12:12:28;3.35;;;1.75;;
19219;SDS011;9744;49.364;7.484;2023-04-03T12:21:10;4.82;;;1.30;;
19219;SDS011;9744;49.364;7.484;2023-04-03T12:26:26;4.10;;;1.45;;
19219;SDS011;9744;49.364;7.484;2023-04-03T12:28:56;5.95;;;1.42;;
19219;SDS011;9744;49.364;7.484;2023-04-03T12:31:25;5.85;;;1.70;;
19219;SDS011;9744;49.364;7.484;2023-04-03T12:34:10;4.85;;;1.40;;
19219;SDS011;9744;49.364;7.484;2023-04-03T12:36:47;4.68;;;1.83;;
19219;SDS011;9744;49.364;7.484;2023-04-03T12:39:36;5.13;;;1.83;;
19219;SDS011;9744;49.364;7.484;2023-04-03T12:42:23;2.80;;;1.20;;
19219;SDS011;9744;49.364;7.484;2023-04-03T12:45:17;4.85;;;1.85;;
19219;SDS011;9744;49.364;7.484;2023-04-03T12:47:48;2.05;;;1.20;;
19219;SDS011;9744;49.364;7.484;2023-04-03T12:50:18;3.95;;;1.63;;
19219;SDS011;9744;49.364;7.484;2023-04-03T12:52:50;3.92;;;1.90;;
19219;SDS011;9744;49.364;7.484;2023-04-03T12:55:21;4.68;;;1.20;;
19219;SDS011;9744;49.364;7.484;2023-04-03T12:57:51;3.28;;;1.23;;
19219;SDS011;9744;49.364;7.484;2023-04-03T13:00:20;4.38;;;1.80;;
19219;SDS011;9744;49.364;7.484;2023-04-03T13:02:53;3.28;;;1.50;;
19219;SDS011;9744;49.364;7.484;2023-04-03T13:05:21;6.70;;;1.80;;
19219;SDS011;9744;49.364;7.484;2023-04-03T13:07:49;4.20;;;1.80;;
19219;SDS011;9744;49.364;7.484;2023-04-03T13:10:19;3.42;;;1.75;;
19219;SDS011;9744;49.364;7.484;2023-04-03T13:12:47;2.50;;;1.60;;
19219;SDS011;9744;49.364;7.484;2023-04-03T13:15:18;5.07;;;1.60;;
19219;SDS011;9744;49.364;7.484;2023-04-03T13:17:47;4.63;;;1.65;;
19219;SDS011;9744;49.364;7.484;2023-04-03T13:20:18;2.30;;;1.50;;
19219;SDS011;9744;49.364;7.484;2023-04-03T13:22:53;6.60;;;1.80;;
19219;SDS011;9744;49.364;7.484;2023-04-03T13:25:24;2.40;;;1.50;;
19219;SDS011;9744;49.364;7.484;2023-04-03T13:27:53;2.95;;;1.48;;
19219;SDS011;9744;49.364;7.484;2023-04-03T13:30:25;7.93;;;1.67;;
19219;SDS011;9744;49.364;7.484;2023-04-03T13:32:54;2.88;;;1.70;;
19219;SDS011;9744;49.364;7.484;2023-04-03T13:35:25;4.38;;;1.30;;
19219;SDS011;9744;49.364;7.484;2023-04-03T13:38:03;4.22;;;1.60;;
19219;SDS011;9744;49.364;7.484;2023-04-03T13:40:32;2.92;;;1.60;;
19219;SDS011;9744;49.364;7.484;2023-04-03T13:43:01;3.10;;;1.63;;
19219;SDS011;9744;49.364;7.484;2023-04-03T13:45:31;7.00;;;1.60;;
19219;SDS011;9744;49.364;7.484;2023-04-03T13:48:09;2.90;;;1.40;;
19219;SDS011;9744;49.364;7.484;2023-04-03T13:50:53;3.92;;;1.90;;
19219;SDS011;9744;49.364;7.484;2023-04-03T13:53:26;4.90;;;1.65;;
19219;SDS011;9744;49.364;7.484;2023-04-03T13:55:57;3.00;;;1.70;;
19219;SDS011;9744;49.364;7.484;2023-04-03T13:58:30;2.20;;;1.30;;
19219;SDS011;9744;49.364;7.484;2023-04-03T14:01:06;3.72;;;1.40;;
19219;SDS011;9744;49.364;7.484;2023-04-03T14:03:39;3.30;;;1.20;;
19219;SDS011;9744;49.364;7.484;2023-04-03T14:06:10;6.45;;;1.45;;
19219;SDS011;9744;49.364;7.484;2023-04-03T14:08:38;4.05;;;1.63;;
19219;SDS011;9744;49.364;7.484;2023-04-03T14:11:08;3.10;;;1.73;;
19219;SDS011;9744;49.364;7.484;2023-04-03T14:13:40;4.05;;;1.83;;
19219;SDS011;9744;49.364;7.484;2023-04-03T14:16:11;3.10;;;1.65;;
19219;SDS011;9744;49.364;7.484;2023-04-03T14:18:40;4.15;;;1.58;;
19219;SDS011;9744;49.364;7.484;2023-04-03T14:21:08;3.30;;;1.52;;
19219;SDS011;9744;49.364;7.484;2023-04-03T14:23:37;5.63;;;1.70;;
19219;SDS011;9744;49.364;7.484;2023-04-03T14:26:04;3.08;;;1.67;;
19219;SDS011;9744;49.364;7.484;2023-04-03T14:28:35;5.03;;;1.90;;
19219;SDS011;9744;49.364;7.484;2023-04-03T14:31:04;3.25;;;1.50;;
19219;SDS011;9744;49.364;7.484;2023-04-03T14:33:33;7.22;;;1.55;;
19219;SDS011;9744;49.364;7.484;2023-04-03T14:36:01;4.82;;;1.80;;
19219;SDS011;9744;49.364;7.484;2023-04-03T14:38:37;3.03;;;1.45;;
19219;SDS011;9744;49.364;7.484;2023-04-03T14:41:04;2.83;;;1.63;;
19219;SDS011;9744;49.364;7.484;2023-04-03T14:43:32;5.63;;;1.50;;
19219;SDS011;9744;49.364;7.484;2023-04-03T14:45:59;3.95;;;2.00;;
19219;SDS011;9744;49.364;7.484;2023-04-03T14:48:27;4.75;;;1.42;;
19219;SDS011;9744;49.364;7.484;2023-04-03T14:50:57;3.05;;;1.30;;
19219;SDS011;9744;49.364;7.484;2023-04-03T14:53:24;4.50;;;1.50;;
19219;SDS011;9744;49.364;7.484;2023-04-03T14:55:55;3.45;;;1.20;;
19219;SDS011;9744;49.364;7.484;2023-04-03T14:58:22;4.22;;;1.48;;
19219;SDS011;9744;49.364;7.484;2023-04-03T15:00:49;4.82;;;1.58;;
19219;SDS011;9744;49.364;7.484;2023-04-03T15:03:17;3.50;;;1.17;;
19219;SDS011;9744;49.364;7.484;2023-04-03T15:05:47;4.05;;;1.13;;
19219;SDS011;9744;49.364;7.484;2023-04-03T15:08:19;1.80;;;1.40;;
19219;SDS011;9744;49.364;7.484;2023-04-03T15:10:49;3.13;;;1.60;;
19219;SDS011;9744;49.364;7.484;2023-04-03T15:13:18;5.45;;;1.65;;
19219;SDS011;9744;49.364;7.484;2023-04-03T15:15:46;3.00;;;1.40;;
19219;SDS011;9744;49.364;7.484;2023-04-03T15:18:14;5.75;;;1.83;;
19219;SDS011;9744;49.364;7.484;2023-04-03T15:20:44;3.45;;;1.23;;
19219;SDS011;9744;49.364;7.484;2023-04-03T15:23:12;5.22;;;1.75;;
19219;SDS011;9744;49.364;7.484;2023-04-03T15:25:42;4.25;;;1.60;;
19219;SDS011;9744;49.364;7.484;2023-04-03T15:28:13;4.88;;;1.33;;
19219;SDS011;9744;49.364;7.484;2023-04-03T15:30:45;2.97;;;1.40;;
19219;SDS011;9744;49.364;7.484;2023-04-03T15:33:13;3.88;;;1.88;;
19219;SDS011;9744;49.364;7.484;2023-04-03T15:35:40;4.00;;;1.50;;
19219;SDS011;9744;49.364;7.484;2023-04-03T15:38:08;2.42;;;1.20;;
19219;SDS011;9744;49.364;7.484;2023-04-03T15:40:36;4.57;;;1.73;;
19219;SDS011;9744;49.364;7.484;2023-04-03T15:43:04;5.25;;;2.22;;
19219;SDS011;9744;49.364;7.484;2023-04-03T15:45:32;4.22;;;1.80;;
19219;SDS011;9744;49.364;7.484;2023-04-03T15:48:02;4.47;;;1.80;;
19219;SDS011;9744;49.364;7.484;2023-04-03T15:50:29;3.63;;;1.70;;
19219;SDS011;9744;49.364;7.484;2023-04-03T15:52:57;3.63;;;1.48;;
19219;SDS011;9744;49.364;7.484;2023-04-03T15:55:27;3.55;;;1.67;;
19219;SDS011;9744;49.364;7.484;2023-04-03T15:58:09;2.97;;;1.83;;
19219;SDS011;9744;49.364;7.484;2023-04-03T16:00:36;3.65;;;1.52;;
19219;SDS011;9744;49.364;7.484;2023-04-03T16:03:05;4.15;;;1.40;;